Time;durP1;ratioP1;P1;durP2;ratioP2;P2;SDS_P1;SDS_P2;PMS_P1;PMS_P2;Temp;Humidity;BMP_temperature;BMP_pressure;BME280_temperature;BME280_humidity;BME280_pressure;Samples;Min_cycle;Max_cycle;Signal;HPM_P1;HPM_P2
2021/05/31 00:00:35;;;;;;;4.75;3.20;;;9.30;99.80;;;;;;5050908;28;20201;-70
2021/05/31 00:03:01;;;;;;;2.80;2.60;;;9.20;99.80;;;;;;5050449;28;20271;-70
2021/05/31 00:05:28;;;;;;;3.67;3.00;;;9.20;99.90;;;;;;5050621;28;20224;-70
2021/05/31 00:07:54;;;;;;;4.57;2.97;;;9.20;99.90;;;;;;5050201;28;20205;-70
2021/05/31 00:10:21;;;;;;;2.72;2.50;;;9.20;99.90;;;;;;5050743;28;20201;-70
2021/05/31 00:12:48;;;;;;;3.13;2.65;;;9.10;99.90;;;;;;5050626;28;20822;-70
2021/05/31 00:15:15;;;;;;;4.20;3.10;;;9.10;99.90;;;;;;5050359;28;20287;-70
2021/05/31 00:17:41;;;;;;;3.80;2.33;;;9.10;99.90;;;;;;5050356;28;20201;-70
2021/05/31 00:20:11;;;;;;;4.72;2.88;;;9.10;99.90;;;;;;5050296;28;20216;-70
2021/05/31 00:22:38;;;;;;;3.30;3.00;;;9.10;99.90;;;;;;5050538;28;20579;-70
2021/05/31 00:25:05;;;;;;;4.00;3.53;;;9.00;99.90;;;;;;5050138;28;20201;-70
2021/05/31 00:27:31;;;;;;;5.03;2.92;;;9.00;99.90;;;;;;5050473;28;20207;-70
2021/05/31 00:29:58;;;;;;;3.60;3.15;;;8.90;99.90;;;;;;5049966;28;20732;-70
2021/05/31 00:32:25;;;;;;;3.17;2.88;;;8.90;99.90;;;;;;5050492;28;20343;-70
2021/05/31 00:34:51;;;;;;;4.75;2.60;;;8.80;99.90;;;;;;5050246;28;20574;-70
2021/05/31 00:37:17;;;;;;;3.33;2.90;;;8.80;99.90;;;;;;5050417;28;20200;-70
2021/05/31 00:39:43;;;;;;;3.00;2.80;;;8.70;99.90;;;;;;5049978;28;20197;-70
2021/05/31 00:42:10;;;;;;;3.03;2.65;;;8.80;99.90;;;;;;5050349;28;20255;-70
2021/05/31 00:44:36;;;;;;;4.68;3.20;;;8.80;99.90;;;;;;5050375;28;20296;-70
2021/05/31 00:47:04;;;;;;;2.95;2.65;;;8.80;99.90;;;;;;5049881;28;20225;-70
2021/05/31 00:49:36;;;;;;;5.32;3.15;;;8.70;99.90;;;;;;5049947;28;20236;-70
2021/05/31 00:52:04;;;;;;;2.90;2.50;;;8.60;99.90;;;;;;5050081;28;20221;-70
2021/05/31 00:54:30;;;;;;;4.13;3.72;;;8.60;99.90;;;;;;5050146;28;20229;-70
2021/05/31 00:56:57;;;;;;;2.97;2.67;;;8.60;99.90;;;;;;5049958;28;20236;-70
2021/05/31 00:59:23;;;;;;;3.75;3.03;;;8.60;99.90;;;;;;5049928;28;20672;-70
2021/05/31 01:01:50;;;;;;;3.28;2.70;;;8.60;99.90;;;;;;5051917;28;20197;-70
2021/05/31 01:04:18;;;;;;;3.10;2.70;;;8.50;99.90;;;;;;5053974;28;20197;-70
2021/05/31 01:06:52;;;;;;;2.70;2.50;;;8.40;99.90;;;;;;5053715;28;20259;-70
2021/05/31 01:09:27;;;;;;;3.33;3.10;;;8.40;99.90;;;;;;5053611;28;20205;-70
2021/05/31 01:12:04;;;;;;;3.30;3.00;;;8.40;99.90;;;;;;5053631;28;20296;-70
2021/05/31 01:14:39;;;;;;;2.90;2.60;;;8.40;99.90;;;;;;5053660;28;20221;-70
2021/05/31 01:17:13;;;;;;;2.60;2.40;;;8.40;99.90;;;;;;5053235;28;20232;-70
2021/05/31 01:20:03;;;;;;;3.10;2.80;;;8.40;99.90;;;;;;5053370;28;20201;-70
2021/05/31 01:22:35;;;;;;;3.58;3.08;;;8.30;99.90;;;;;;5053673;28;20246;-71
2021/05/31 01:25:16;;;;;;;3.58;2.40;;;8.30;99.90;;;;;;5053385;28;20205;-70
2021/05/31 01:28:01;;;;;;;3.20;2.90;;;8.20;99.90;;;;;;5053355;28;20215;-70
2021/05/31 01:30:29;;;;;;;3.95;2.75;;;8.20;99.90;;;;;;5053530;28;20201;-70
2021/05/31 01:32:56;;;;;;;3.88;3.45;;;8.10;99.90;;;;;;5053402;28;20205;-71
2021/05/31 01:35:27;;;;;;;2.70;2.50;;;8.10;99.90;;;;;;5053302;28;20221;-71
2021/05/31 01:37:55;;;;;;;3.13;2.78;;;8.00;99.90;;;;;;5052934;28;20603;-71
2021/05/31 01:40:22;;;;;;;4.10;3.10;;;8.00;99.90;;;;;;5053280;28;20205;-71
2021/05/31 01:42:51;;;;;;;3.65;3.15;;;7.90;99.90;;;;;;5053086;28;20201;-70
2021/05/31 01:45:17;;;;;;;3.10;2.80;;;7.90;99.90;;;;;;5053152;28;20593;-71
2021/05/31 01:47:45;;;;;;;3.42;2.70;;;7.80;99.90;;;;;;5052788;28;20202;-71
2021/05/31 01:50:13;;;;;;;4.03;2.90;;;7.80;99.90;;;;;;5052794;28;20216;-70
2021/05/31 01:52:43;;;;;;;3.80;3.17;;;7.80;99.90;;;;;;5053095;28;20204;-70
2021/05/31 01:55:11;;;;;;;3.30;2.83;;;7.70;99.90;;;;;;5052698;28;20609;-70
2021/05/31 01:57:38;;;;;;;2.83;2.55;;;7.80;99.90;;;;;;5052877;28;20574;-70
2021/05/31 02:00:06;;;;;;;4.05;3.28;;;7.70;99.90;;;;;;5052506;28;20299;-70
2021/05/31 02:02:33;;;;;;;4.35;3.25;;;7.70;99.90;;;;;;5052770;28;20204;-70
2021/05/31 02:05:00;;;;;;;5.00;3.00;;;7.70;99.90;;;;;;5052504;28;20201;-70
2021/05/31 02:07:27;;;;;;;4.10;2.80;;;7.70;99.90;;;;;;5052739;28;20225;-70
2021/05/31 02:09:53;;;;;;;3.30;2.90;;;7.60;99.90;;;;;;5052258;28;20205;-70
2021/05/31 02:12:24;;;;;;;3.70;3.20;;;7.60;99.90;;;;;;5052618;28;20201;-71
2021/05/31 02:14:54;;;;;;;4.05;3.05;;;7.50;99.90;;;;;;5052172;28;20232;-70
2021/05/31 02:17:27;;;;;;;2.88;2.67;;;7.50;99.90;;;;;;5052590;28;20205;-71
2021/05/31 02:19:58;;;;;;;4.75;2.63;;;7.50;99.90;;;;;;5052179;28;20212;-70
2021/05/31 02:22:26;;;;;;;6.60;3.80;;;7.50;99.90;;;;;;5052587;28;20201;-71
2021/05/31 02:24:54;;;;;;;5.55;3.53;;;7.50;99.90;;;;;;5052477;28;20197;-70
2021/05/31 02:27:22;;;;;;;5.93;3.60;;;7.50;99.90;;;;;;5052369;28;20205;-70
2021/05/31 02:29:48;;;;;;;3.95;3.50;;;7.40;99.90;;;;;;5052057;28;20209;-70
2021/05/31 02:32:14;;;;;;;4.43;3.85;;;7.30;99.90;;;;;;5052404;28;20201;-70
2021/05/31 02:34:40;;;;;;;3.90;3.13;;;7.30;99.90;;;;;;5052244;28;20221;-71
2021/05/31 02:37:09;;;;;;;8.02;3.60;;;7.30;99.90;;;;;;5052153;28;20232;-70
2021/05/31 02:39:36;;;;;;;2.83;2.63;;;7.30;99.90;;;;;;5051899;28;20196;-70
2021/05/31 02:42:03;;;;;;;3.28;2.88;;;7.20;99.90;;;;;;5051999;28;20220;-70
2021/05/31 02:44:29;;;;;;;3.42;3.10;;;7.20;99.90;;;;;;5052081;28;20197;-70
2021/05/31 02:46:56;;;;;;;4.13;3.00;;;7.20;99.90;;;;;;5051698;28;20225;-70
2021/05/31 02:49:22;;;;;;;4.65;3.20;;;7.20;99.90;;;;;;5052859;28;20204;-70
2021/05/31 02:51:48;;;;;;;4.25;3.55;;;7.10;99.90;;;;;;5051916;28;20201;-70
2021/05/31 02:54:14;;;;;;;5.15;2.92;;;7.20;99.90;;;;;;5051903;28;20220;-70
2021/05/31 02:56:43;;;;;;;3.88;3.20;;;7.20;99.90;;;;;;5051836;28;20445;-70
2021/05/31 02:59:09;;;;;;;4.88;3.28;;;7.10;99.90;;;;;;5051505;28;20201;-70
2021/05/31 03:01:35;;;;;;;3.72;2.80;;;7.10;99.90;;;;;;5051726;28;20676;-70
2021/05/31 03:04:02;;;;;;;6.70;3.05;;;7.10;99.90;;;;;;5051761;28;20205;-71
2021/05/31 03:06:29;;;;;;;3.90;3.30;;;7.00;99.90;;;;;;5051849;28;20224;-70
2021/05/31 03:08:55;;;;;;;3.75;3.13;;;7.00;99.90;;;;;;5051236;28;20231;-70
2021/05/31 03:11:21;;;;;;;3.40;2.95;;;6.90;99.90;;;;;;5051549;28;20732;-70
2021/05/31 03:13:49;;;;;;;3.10;2.80;;;6.90;99.90;;;;;;5051292;28;20231;-70
2021/05/31 03:16:15;;;;;;;3.78;3.10;;;6.90;99.90;;;;;;5051339;28;20233;-70
2021/05/31 03:18:41;;;;;;;5.28;3.20;;;7.00;99.90;;;;;;5051241;28;20209;-70
2021/05/31 03:21:08;;;;;;;3.22;2.80;;;7.00;99.90;;;;;;5051297;28;20212;-70
2021/05/31 03:23:34;;;;;;;3.50;2.72;;;7.00;99.90;;;;;;5051075;28;20201;-71
2021/05/31 03:26:00;;;;;;;3.28;2.92;;;6.90;99.90;;;;;;5051045;28;20841;-71
2021/05/31 03:28:27;;;;;;;4.35;3.10;;;6.90;99.90;;;;;;5050996;28;20205;-71
2021/05/31 03:30:54;;;;;;;4.28;3.38;;;6.80;99.90;;;;;;5051123;28;20209;-70
2021/05/31 03:33:20;;;;;;;3.17;2.88;;;6.90;99.90;;;;;;5051185;28;20205;-70
2021/05/31 03:35:46;;;;;;;4.18;2.83;;;6.90;99.90;;;;;;5049200;28;20285;-70
2021/05/31 03:38:13;;;;;;;3.00;2.80;;;6.90;99.90;;;;;;5049860;28;20205;-71
2021/05/31 03:40:39;;;;;;;2.97;2.67;;;6.80;99.90;;;;;;5050180;28;20197;-71
2021/05/31 03:43:05;;;;;;;3.88;3.28;;;6.80;99.90;;;;;;5050807;28;20668;-70
2021/05/31 03:45:31;;;;;;;3.13;2.83;;;6.80;99.90;;;;;;5050910;28;20228;-71
2021/05/31 03:47:59;;;;;;;4.65;3.00;;;6.80;99.90;;;;;;5050469;28;20212;-71
2021/05/31 03:50:25;;;;;;;3.13;2.70;;;6.80;99.90;;;;;;5051086;28;20607;-71
2021/05/31 03:52:51;;;;;;;3.50;2.75;;;6.80;99.90;;;;;;5050661;28;20212;-71
2021/05/31 03:55:19;;;;;;;3.30;3.00;;;6.70;99.90;;;;;;5050925;28;20575;-71
2021/05/31 03:57:45;;;;;;;5.32;3.05;;;6.80;99.90;;;;;;5050360;28;20207;-71
2021/05/31 04:00:13;;;;;;;4.13;3.25;;;6.80;99.90;;;;;;5050484;28;20211;-71
2021/05/31 04:02:39;;;;;;;3.60;3.30;;;6.80;99.90;;;;;;5050708;28;20204;-71
2021/05/31 04:05:10;;;;;;;3.67;3.00;;;6.80;99.90;;;;;;5050307;28;20193;-70
2021/05/31 04:13:14;;;;;;;3.47;2.70;;;6.90;99.90;;;;;;5050515;28;20272;-71
2021/05/31 04:15:41;;;;;;;3.05;2.60;;;6.90;99.90;;;;;;5050436;28;20225;-72
2021/05/31 04:18:07;;;;;;;3.08;2.88;;;6.90;99.90;;;;;;5050051;28;20205;-72
2021/05/31 04:20:35;;;;;;;2.90;2.60;;;7.00;99.90;;;;;;5050621;28;20219;-71
2021/05/31 04:23:02;;;;;;;4.47;3.15;;;7.00;99.90;;;;;;5049720;28;20227;-71
2021/05/31 04:25:28;;;;;;;4.72;2.83;;;7.10;99.90;;;;;;5032668;28;20228;-71
2021/05/31 04:27:54;;;;;;;3.08;2.63;;;7.10;99.90;;;;;;5029947;28;20212;-70
2021/05/31 04:30:21;;;;;;;4.72;2.72;;;7.10;99.90;;;;;;5030413;28;20205;-71
2021/05/31 04:32:47;;;;;;;2.85;2.55;;;7.10;99.90;;;;;;5030536;28;20209;-70
2021/05/31 04:35:14;;;;;;;3.15;2.90;;;7.10;99.90;;;;;;5030293;28;20252;-72
2021/05/31 04:37:41;;;;;;;10.60;2.50;;;7.20;99.90;;;;;;5033603;28;20206;-71
2021/05/31 04:40:08;;;;;;;5.30;3.47;;;7.20;99.90;;;;;;5034221;28;20263;-71
2021/05/31 04:42:35;;;;;;;5.38;3.33;;;7.30;99.90;;;;;;5034386;28;20208;-71
2021/05/31 04:45:01;;;;;;;4.18;3.28;;;7.40;99.90;;;;;;5034178;28;20206;-71
2021/05/31 04:47:27;;;;;;;4.32;3.33;;;7.40;99.90;;;;;;5034108;28;20224;-71
2021/05/31 04:49:55;;;;;;;3.20;2.90;;;7.50;99.90;;;;;;5062397;22;20271;-67
2021/05/31 04:52:21;;;;;;;5.80;2.90;;;7.60;99.90;;;;;;5081768;28;20756;-67
2021/05/31 04:54:49;;;;;;;3.67;3.38;;;7.70;99.90;;;;;;5053949;28;20221;-67
2021/05/31 04:57:16;;;;;;;3.40;3.10;;;7.80;99.90;;;;;;5054022;28;20209;-67
2021/05/31 04:59:42;;;;;;;6.10;4.68;;;7.90;99.90;;;;;;5052921;28;20580;-67
2021/05/31 05:02:08;;;;;;;3.35;3.05;;;8.00;99.90;;;;;;5053735;28;20673;-66
2021/05/31 05:04:34;;;;;;;3.88;3.35;;;8.10;99.90;;;;;;5054063;28;20222;-67
2021/05/31 05:07:00;;;;;;;3.35;3.05;;;8.20;99.90;;;;;;5053804;28;20554;-67
2021/05/31 05:09:27;;;;;;;3.53;3.22;;;8.30;99.90;;;;;;5060181;28;20197;-67
2021/05/31 05:11:54;;;;;;;4.63;3.35;;;8.50;99.90;;;;;;5073468;28;20623;-67
2021/05/31 05:14:20;;;;;;;3.40;3.05;;;8.60;99.90;;;;;;5073559;28;20232;-67
2021/05/31 05:16:47;;;;;;;3.53;2.92;;;8.80;99.90;;;;;;5073967;28;20204;-67
2021/05/31 05:19:13;;;;;;;3.30;3.00;;;8.90;99.90;;;;;;5073225;28;20200;-66
2021/05/31 05:21:41;;;;;;;4.55;3.50;;;9.10;99.90;;;;;;5073649;28;20304;-67
2021/05/31 05:24:08;;;;;;;5.07;4.07;;;9.20;99.90;;;;;;5073404;28;20196;-66
2021/05/31 05:26:34;;;;;;;5.47;3.15;;;9.30;99.90;;;;;;5073619;28;20200;-67
2021/05/31 05:29:02;;;;;;;4.30;3.20;;;9.40;99.90;;;;;;5073162;28;20196;-67
2021/05/31 05:31:29;;;;;;;3.83;2.97;;;9.50;99.90;;;;;;5073472;28;20566;-66
2021/05/31 05:33:56;;;;;;;4.30;3.50;;;9.60;99.90;;;;;;5073274;28;20778;-67
2021/05/31 05:36:27;;;;;;;4.05;3.65;;;9.70;99.90;;;;;;5073309;28;20548;-67
2021/05/31 05:44:51;;;;;;;3.85;3.55;;;10.10;99.90;;;;;;5066207;28;20200;-67
2021/05/31 05:47:42;;;;;;;5.18;3.60;;;10.20;99.90;;;;;;5072852;28;20368;-67
2021/05/31 05:50:10;;;;;;;4.68;3.47;;;10.30;99.90;;;;;;5072819;28;20259;-67
2021/05/31 05:52:36;;;;;;;3.55;3.25;;;10.40;99.90;;;;;;5073178;28;20196;-67
2021/05/31 05:55:05;;;;;;;7.80;3.97;;;10.50;99.90;;;;;;5072766;28;20216;-67
2021/05/31 05:57:32;;;;;;;5.00;3.55;;;10.60;99.90;;;;;;5072993;28;20204;-67
2021/05/31 06:00:01;;;;;;;3.58;3.25;;;10.70;99.90;;;;;;5072566;28;20235;-67
2021/05/31 06:02:27;;;;;;;3.95;3.45;;;10.80;99.90;;;;;;5073094;28;20236;-66
2021/05/31 06:04:53;;;;;;;4.10;3.70;;;10.90;99.90;;;;;;5072894;28;20197;-67
2021/05/31 06:07:20;;;;;;;5.45;3.83;;;11.00;99.90;;;;;;5072888;28;20672;-68
2021/05/31 06:09:46;;;;;;;4.20;3.13;;;11.00;99.90;;;;;;5072740;28;20262;-67
2021/05/31 06:12:12;;;;;;;4.47;3.17;;;11.10;99.90;;;;;;5072625;28;20299;-67
2021/05/31 06:14:38;;;;;;;3.50;3.20;;;11.20;99.90;;;;;;5072739;28;20232;-67
2021/05/31 06:17:06;;;;;;;4.70;3.70;;;11.30;99.90;;;;;;5072788;28;20581;-67
2021/05/31 06:19:32;;;;;;;3.60;3.30;;;11.30;99.90;;;;;;5072255;28;20200;-67
2021/05/31 06:21:59;;;;;;;3.60;3.30;;;11.40;99.90;;;;;;5072461;28;20207;-67
2021/05/31 06:24:25;;;;;;;4.72;3.53;;;11.60;99.90;;;;;;5072315;28;20204;-67
2021/05/31 06:26:51;;;;;;;3.55;3.25;;;11.60;99.90;;;;;;5072388;28;20209;-67
2021/05/31 06:29:17;;;;;;;3.30;3.10;;;11.70;99.90;;;;;;5071915;28;20204;-67
2021/05/31 06:31:43;;;;;;;4.20;3.60;;;11.90;99.90;;;;;;5072240;28;20220;-67
2021/05/31 06:34:11;;;;;;;3.90;3.50;;;12.00;99.90;;;;;;5071931;28;20216;-67
2021/05/31 06:36:40;;;;;;;4.00;2.88;;;12.10;99.90;;;;;;5072279;28;20465;-67
2021/05/31 06:39:07;;;;;;;3.75;3.25;;;12.20;99.90;;;;;;5071731;28;20214;-67
2021/05/31 06:41:35;;;;;;;4.73;3.40;;;12.30;99.90;;;;;;5072118;28;20224;-67
2021/05/31 06:44:02;;;;;;;3.47;3.17;;;12.40;99.90;;;;;;5072307;28;20466;-67
2021/05/31 06:46:28;;;;;;;4.37;3.40;;;12.50;99.90;;;;;;5072208;28;20462;-67
2021/05/31 06:48:55;;;;;;;5.53;2.70;;;12.70;99.80;;;;;;5071635;28;20527;-67
2021/05/31 06:51:22;;;;;;;2.93;2.63;;;12.90;99.90;;;;;;5071620;28;20494;-67
2021/05/31 06:53:49;;;;;;;3.40;3.10;;;13.00;99.90;;;;;;5066432;28;20519;-69
2021/05/31 06:56:16;;;;;;;2.90;2.70;;;13.10;99.90;;;;;;5068990;28;20473;-67
2021/05/31 06:58:42;;;;;;;4.67;3.10;;;13.20;99.90;;;;;;5068830;28;20459;-67
2021/05/31 07:01:10;;;;;;;3.60;3.03;;;13.30;98.70;;;;;;5070408;28;20535;-67
2021/05/31 07:03:36;;;;;;;3.03;2.73;;;13.40;98.70;;;;;;5070679;28;20966;-67
2021/05/31 07:06:03;;;;;;;3.00;2.70;;;13.50;97.80;;;;;;5068445;28;20447;-67
2021/05/31 07:08:31;;;;;;;3.33;2.50;;;13.50;97.70;;;;;;5070381;28;20458;-67
2021/05/31 07:10:59;;;;;;;3.60;2.60;;;13.60;98.30;;;;;;5070454;28;20486;-67
2021/05/31 07:13:25;;;;;;;3.30;2.87;;;13.70;98.70;;;;;;5070553;28;20462;-67
2021/05/31 07:15:52;;;;;;;3.80;2.67;;;13.90;98.60;;;;;;5070674;28;20924;-67
2021/05/31 07:18:19;;;;;;;2.60;2.40;;;13.90;96.90;;;;;;5069943;28;20466;-67
2021/05/31 07:20:48;;;;;;;4.30;2.80;;;14.00;96.70;;;;;;5070486;28;20896;-67
2021/05/31 07:23:14;;;;;;;2.50;2.30;;;14.10;97.00;;;;;;5069498;28;20557;-67
2021/05/31 07:25:42;;;;;;;2.90;2.60;;;14.20;97.70;;;;;;5069241;28;20462;-67
2021/05/31 07:28:09;;;;;;;3.17;2.70;;;14.30;97.60;;;;;;5069938;28;20463;-67
2021/05/31 07:30:35;;;;;;;2.90;2.20;;;14.40;97.20;;;;;;5070445;28;20478;-67
2021/05/31 07:33:02;;;;;;;3.80;2.83;;;14.60;96.70;;;;;;5070222;28;20549;-66
2021/05/31 07:35:28;;;;;;;3.40;2.80;;;14.60;96.30;;;;;;5068881;28;20486;-67
2021/05/31 07:37:54;;;;;;;2.20;2.00;;;14.70;95.00;;;;;;5069864;28;20459;-67
2021/05/31 07:40:21;;;;;;;5.33;2.70;;;14.70;96.10;;;;;;5070108;28;20467;-67
2021/05/31 07:42:49;;;;;;;3.33;3.03;;;14.80;96.10;;;;;;5070141;28;20466;-67
2021/05/31 07:45:17;;;;;;;2.70;2.50;;;14.80;94.50;;;;;;5068513;28;20949;-67
2021/05/31 07:47:44;;;;;;;3.93;2.70;;;14.90;94.50;;;;;;5069422;28;20458;-66
2021/05/31 07:50:12;;;;;;;3.10;2.50;;;15.00;96.60;;;;;;5069714;28;20490;-66
2021/05/31 07:52:38;;;;;;;3.20;2.60;;;15.10;95.80;;;;;;5069996;28;20470;-67
2021/05/31 07:55:07;;;;;;;2.90;2.57;;;15.20;95.90;;;;;;5068920;28;20488;-67
2021/05/31 07:57:33;;;;;;;2.40;2.20;;;15.30;95.90;;;;;;5069305;28;20469;-67
2021/05/31 08:00:02;;;;;;;2.43;2.20;;;15.40;94.80;;;;;;5069630;28;20478;-67
2021/05/31 08:02:29;;;;;;;2.93;2.30;;;15.50;93.40;;;;;;5068424;28;20490;-67
2021/05/31 08:04:55;;;;;;;4.70;2.50;;;15.50;93.30;;;;;;5067842;28;20459;-67
2021/05/31 08:07:21;;;;;;;2.03;1.83;;;15.50;92.30;;;;;;5069392;28;20489;-67
2021/05/31 08:09:48;;;;;;;9.53;2.87;;;15.60;93.70;;;;;;5069034;28;20978;-67
2021/05/31 08:12:14;;;;;;;2.60;2.40;;;15.70;91.60;;;;;;5069274;28;20501;-67
2021/05/31 08:14:41;;;;;;;2.40;2.20;;;15.80;92.20;;;;;;5068531;28;20532;-67
2021/05/31 08:17:09;;;;;;;2.40;2.20;;;15.90;91.40;;;;;;5069134;28;20458;-68
2021/05/31 08:19:35;;;;;;;3.13;2.60;;;15.90;93.80;;;;;;5069201;28;20471;-67
2021/05/31 08:22:02;;;;;;;2.63;2.40;;;16.10;92.50;;;;;;5069603;28;20675;-67
2021/05/31 08:24:28;;;;;;;2.93;2.10;;;16.20;91.60;;;;;;5067936;28;20462;-67
2021/05/31 08:26:55;;;;;;;3.50;2.00;;;16.30;91.80;;;;;;5069524;28;20466;-67
2021/05/31 08:29:22;;;;;;;2.60;2.40;;;16.30;90.10;;;;;;5069444;28;20458;-67
2021/05/31 08:31:49;;;;;;;3.13;2.30;;;16.30;90.00;;;;;;5069496;28;20482;-67
2021/05/31 08:34:17;;;;;;;2.60;2.20;;;16.40;90.00;;;;;;5068993;28;20504;-67
2021/05/31 08:36:45;;;;;;;3.00;2.23;;;16.40;87.90;;;;;;5068987;28;20458;-67
2021/05/31 08:39:12;;;;;;;2.20;2.00;;;16.50;87.90;;;;;;5069170;28;20508;-67
2021/05/31 08:41:38;;;;;;;3.73;2.37;;;16.50;91.00;;;;;;5069321;28;20482;-67
2021/05/31 08:44:05;;;;;;;4.00;2.40;;;16.70;90.30;;;;;;5068835;28;20490;-67
2021/05/31 08:46:32;;;;;;;3.13;2.13;;;16.80;91.40;;;;;;5068973;28;21041;-67
2021/05/31 08:48:58;;;;;;;3.10;2.40;;;16.90;90.50;;;;;;5069061;28;20985;-67
2021/05/31 08:51:26;;;;;;;2.33;2.10;;;17.00;90.10;;;;;;5069299;28;21135;-67
2021/05/31 08:53:53;;;;;;;3.03;2.30;;;17.10;91.30;;;;;;5068919;28;20462;-67
2021/05/31 08:56:19;;;;;;;7.00;2.30;;;17.20;90.70;;;;;;5067878;28;20501;-67
2021/05/31 08:58:47;;;;;;;2.50;2.30;;;17.40;90.60;;;;;;5069023;28;20675;-67
2021/05/31 09:01:14;;;;;;;4.43;2.30;;;17.40;90.60;;;;;;5067215;28;20986;-67
2021/05/31 09:03:41;;;;;;;4.23;2.40;;;17.50;89.90;;;;;;5068955;28;20459;-67
2021/05/31 09:06:09;;;;;;;3.40;2.30;;;17.60;88.50;;;;;;5067287;28;20459;-68
2021/05/31 09:08:39;;;;;;;2.57;2.37;;;17.70;90.60;;;;;;5068911;28;20465;-67
2021/05/31 09:11:07;;;;;;;2.87;2.63;;;17.70;91.80;;;;;;5068622;28;20478;-68
2021/05/31 09:13:36;;;;;;;2.60;2.40;;;17.80;89.60;;;;;;5069134;28;20458;-67
2021/05/31 09:16:08;;;;;;;2.87;2.57;;;18.00;91.70;;;;;;5067939;28;20485;-68
2021/05/31 09:18:37;;;;;;;4.03;2.40;;;18.10;91.70;;;;;;5068977;28;20499;-68
2021/05/31 09:21:19;;;;;;;4.60;2.50;;;18.10;91.00;;;;;;5068901;28;20569;-68
2021/05/31 09:23:48;;;;;;;2.70;2.27;;;18.20;89.10;;;;;;5072020;28;20462;-68
2021/05/31 09:26:15;;;;;;;2.90;2.17;;;18.30;89.10;;;;;;5072264;28;21251;-68
2021/05/31 09:28:53;;;;;;;3.03;2.30;;;18.30;89.00;;;;;;5072094;28;20472;-68
2021/05/31 09:31:19;;;;;;;2.30;2.10;;;18.40;90.90;;;;;;5072288;28;20486;-68
2021/05/31 09:33:56;;;;;;;2.60;2.40;;;18.50;90.60;;;;;;5072541;28;20461;-68
2021/05/31 09:36:22;;;;;;;2.40;2.10;;;18.70;90.60;;;;;;5071126;28;20482;-68
2021/05/31 09:38:50;;;;;;;2.53;2.33;;;18.80;88.90;;;;;;5072352;28;20489;-68
2021/05/31 09:41:25;;;;;;;2.30;2.10;;;18.80;90.10;;;;;;5072078;28;20481;-68
2021/05/31 09:43:53;;;;;;;3.00;2.60;;;18.90;90.50;;;;;;5072213;28;20977;-68
2021/05/31 09:46:20;;;;;;;3.10;2.40;;;19.00;85.60;;;;;;5070578;28;20470;-68
2021/05/31 09:48:46;;;;;;;2.40;2.20;;;19.00;88.10;;;;;;5072098;28;20458;-68
2021/05/31 09:51:14;;;;;;;3.17;2.87;;;19.00;87.00;;;;;;5070545;28;20513;-68
2021/05/31 09:53:40;;;;;;;3.27;2.67;;;19.10;86.90;;;;;;5072243;28;20510;-68
2021/05/31 09:56:16;;;;;;;2.70;2.50;;;19.10;84.20;;;;;;5069912;28;20478;-68
2021/05/31 09:58:52;;;;;;;3.40;2.80;;;19.20;89.90;;;;;;5071738;28;20462;-68
2021/05/31 10:01:41;;;;;;;2.47;2.27;;;19.30;88.40;;;;;;5071394;28;20832;-68
2021/05/31 10:04:18;;;;;;;2.23;2.03;;;19.30;88.20;;;;;;5070740;28;20484;-68
2021/05/31 10:06:49;;;;;;;3.00;2.47;;;19.40;89.80;;;;;;5071659;28;20545;-68
2021/05/31 10:09:16;;;;;;;2.93;2.63;;;19.50;86.00;;;;;;5071702;28;20462;-68
2021/05/31 10:11:45;;;;;;;5.67;2.30;;;19.50;85.40;;;;;;5071763;28;20513;-68
2021/05/31 10:14:13;;;;;;;3.67;2.60;;;19.60;84.90;;;;;;5070498;28;20458;-68
2021/05/31 10:16:41;;;;;;;2.43;2.23;;;19.70;89.20;;;;;;5070524;28;20877;-67
2021/05/31 10:19:07;;;;;;;2.50;2.30;;;19.90;85.20;;;;;;5071066;28;20508;-68
2021/05/31 10:21:34;;;;;;;3.27;2.50;;;20.00;85.30;;;;;;5071915;28;21018;-68
2021/05/31 10:24:01;;;;;;;3.50;2.60;;;20.10;85.40;;;;;;5068525;28;20454;-68
2021/05/31 10:26:32;;;;;;;2.50;2.30;;;20.20;82.60;;;;;;5067517;28;20454;-68
2021/05/31 10:29:00;;;;;;;2.20;2.00;;;20.30;79.50;;;;;;5065145;28;20462;-68
2021/05/31 10:31:27;;;;;;;2.60;2.40;;;20.30;84.90;;;;;;5068608;28;20486;-67
2021/05/31 10:33:58;;;;;;;4.33;2.70;;;20.40;85.00;;;;;;5061647;28;20951;-67
2021/05/31 10:36:30;;;;;;;3.60;2.87;;;20.60;84.30;;;;;;5064545;28;20972;-68
2021/05/31 10:39:01;;;;;;;3.67;2.27;;;20.60;84.10;;;;;;5067263;28;20466;-68
2021/05/31 10:41:27;;;;;;;4.00;2.47;;;20.80;85.90;;;;;;5063873;28;20540;-68
2021/05/31 10:43:55;;;;;;;4.90;2.67;;;20.80;84.90;;;;;;5061296;28;21080;-67
2021/05/31 10:46:29;;;;;;;5.57;2.67;;;20.90;81.60;;;;;;5062738;28;20462;-68
2021/05/31 10:48:55;;;;;;;2.73;2.40;;;21.00;83.30;;;;;;5066489;28;20470;-68
2021/05/31 10:51:25;;;;;;;2.80;2.60;;;21.10;84.30;;;;;;5100504;22;20481;-72
2021/05/31 10:53:51;;;;;;;2.77;2.43;;;21.20;87.30;;;;;;5086563;28;20509;-72
2021/05/31 10:56:26;;;;;;;2.43;2.20;;;21.30;82.10;;;;;;5090606;28;20484;-72
2021/05/31 10:58:55;;;;;;;2.30;2.10;;;21.40;84.10;;;;;;5086998;28;20917;-70
2021/05/31 11:01:37;;;;;;;2.57;2.37;;;21.60;86.40;;;;;;5090486;28;20889;-70
2021/05/31 11:04:07;;;;;;;2.70;2.50;;;21.60;81.00;;;;;;5089863;28;20549;-69
2021/05/31 11:06:35;;;;;;;2.57;2.37;;;21.70;83.10;;;;;;5083895;28;20482;-71
2021/05/31 11:09:08;;;;;;;3.13;2.50;;;21.80;82.50;;;;;;5087238;28;20469;-70
2021/05/31 11:11:37;;;;;;;3.03;2.50;;;21.80;84.00;;;;;;5088529;28;21003;-70
2021/05/31 11:14:04;;;;;;;2.57;2.37;;;21.80;85.70;;;;;;5088221;28;20821;-71
2021/05/31 11:16:34;;;;;;;2.80;2.20;;;21.90;82.40;;;;;;5087991;28;20481;-71
2021/05/31 11:19:01;;;;;;;2.87;2.57;;;21.80;82.10;;;;;;5087621;28;20520;-71
2021/05/31 11:21:40;;;;;;;3.70;2.50;;;21.80;79.10;;;;;;5089348;28;20478;-71
2021/05/31 11:24:08;;;;;;;2.63;2.43;;;22.00;77.90;;;;;;5087286;28;20466;-70
2021/05/31 11:26:37;;;;;;;2.60;2.40;;;22.00;80.60;;;;;;5087598;28;20450;-69
2021/05/31 11:29:06;;;;;;;2.57;2.10;;;22.10;79.40;;;;;;5087500;28;20458;-69
2021/05/31 11:31:35;;;;;;;2.70;2.50;;;22.10;80.70;;;;;;5087239;28;20473;-71
2021/05/31 11:34:02;;;;;;;3.00;2.80;;;22.20;84.10;;;;;;5087351;28;20451;-70
2021/05/31 11:36:35;;;;;;;2.63;2.43;;;22.30;82.10;;;;;;5086384;28;20484;-69
2021/05/31 11:39:06;;;;;;;2.70;2.50;;;22.50;78.70;;;;;;5082642;28;20461;-69
2021/05/31 11:41:38;;;;;;;2.40;2.20;;;22.60;78.80;;;;;;5088979;28;20580;-70
2021/05/31 11:44:06;;;;;;;2.93;2.60;;;22.60;76.30;;;;;;5087332;28;20495;-69
2021/05/31 11:46:48;;;;;;;2.67;2.47;;;22.60;80.00;;;;;;5084826;28;20903;-71
2021/05/31 11:49:14;;;;;;;2.30;2.10;;;22.60;78.60;;;;;;5087379;28;20888;-71
2021/05/31 11:51:41;;;;;;;5.17;2.37;;;22.50;78.60;;;;;;5087394;28;20485;-69
2021/05/31 11:54:07;;;;;;;2.60;2.40;;;22.70;78.50;;;;;;5086293;28;20461;-69
2021/05/31 11:56:35;;;;;;;3.20;2.40;;;22.60;76.80;;;;;;5085092;28;20489;-69
2021/05/31 11:59:01;;;;;;;2.47;2.27;;;22.60;78.70;;;;;;5086172;28;20499;-69
2021/05/31 12:01:29;;;;;;;4.07;2.47;;;22.70;80.60;;;;;;5086166;28;20477;-69
2021/05/31 12:03:57;;;;;;;2.20;2.00;;;22.90;75.10;;;;;;5086713;28;20462;-69
2021/05/31 12:06:23;;;;;;;2.43;2.03;;;22.90;74.30;;;;;;5084527;28;20958;-69
2021/05/31 12:08:52;;;;;;;2.67;2.43;;;22.90;77.10;;;;;;5087130;28;20450;-69
2021/05/31 12:11:20;;;;;;;2.63;2.23;;;22.90;76.70;;;;;;5086730;28;20619;-69
2021/05/31 12:13:47;;;;;;;2.73;2.50;;;23.00;78.50;;;;;;5087717;28;20463;-69
2021/05/31 12:16:14;;;;;;;2.47;2.27;;;23.10;78.60;;;;;;5084758;28;20490;-69
2021/05/31 12:18:40;;;;;;;2.40;2.20;;;23.10;78.40;;;;;;5086035;28;20466;-70
2021/05/31 12:21:07;;;;;;;2.60;2.40;;;23.20;78.80;;;;;;5087505;28;20538;-70
2021/05/31 12:23:35;;;;;;;2.43;2.23;;;23.30;75.50;;;;;;5086174;28;20548;-70
2021/05/31 12:26:03;;;;;;;2.83;2.40;;;23.30;76.30;;;;;;5083297;28;20510;-69
2021/05/31 12:28:31;;;;;;;2.83;2.63;;;23.20;74.40;;;;;;5088030;28;20469;-69
2021/05/31 12:30:58;;;;;;;3.07;2.80;;;23.00;76.70;;;;;;5087876;28;20489;-69
2021/05/31 12:33:24;;;;;;;4.03;3.10;;;22.90;74.50;;;;;;5087081;28;20871;-71
2021/05/31 12:35:50;;;;;;;3.40;3.10;;;23.00;76.20;;;;;;5083872;28;21028;-69
2021/05/31 12:38:19;;;;;;;2.83;2.53;;;22.90;76.00;;;;;;5086847;28;20469;-69
2021/05/31 12:40:46;;;;;;;2.70;2.50;;;23.00;76.90;;;;;;5086070;28;21020;-69
2021/05/31 12:43:14;;;;;;;2.63;2.43;;;23.20;75.20;;;;;;5086467;28;20468;-70
2021/05/31 12:45:45;;;;;;;2.30;2.10;;;23.20;76.00;;;;;;5084248;28;20454;-70
2021/05/31 12:48:19;;;;;;;2.40;2.20;;;23.10;75.80;;;;;;5085977;28;20465;-70
2021/05/31 12:50:49;;;;;;;5.03;2.70;;;23.20;78.80;;;;;;5081889;28;20578;-70
2021/05/31 12:53:16;;;;;;;2.50;2.30;;;23.40;79.10;;;;;;5080463;28;20493;-70
2021/05/31 12:55:44;;;;;;;2.87;2.40;;;23.70;75.10;;;;;;5083186;28;21201;-69
2021/05/31 12:58:12;;;;;;;2.17;1.97;;;23.90;73.30;;;;;;5082661;28;20530;-70
2021/05/31 13:00:39;;;;;;;12.40;5.73;;;23.70;72.70;;;;;;5090979;28;20584;-69
2021/05/31 13:03:07;;;;;;;3.40;2.67;;;23.60;74.00;;;;;;5090946;28;20461;-70
2021/05/31 13:05:35;;;;;;;3.33;2.30;;;23.50;74.70;;;;;;5087196;28;20469;-70